createdAt,value
2023-03-24T00:05:53.152Z,14.36
2023-03-24T00:12:16.198Z,14.38
2023-03-24T00:18:36.279Z,14.39
2023-03-24T00:24:59.246Z,14.43
2023-03-24T00:31:19.191Z,14.44
2023-03-24T00:37:42.215Z,14.41
2023-03-24T00:44:02.175Z,14.37
2023-03-24T00:50:25.151Z,14.31
2023-03-24T00:56:45.261Z,14.26
2023-03-24T01:03:08.193Z,14.26
2023-03-24T01:09:28.214Z,14.25
2023-03-24T01:15:51.173Z,14.24
2023-03-24T01:22:11.189Z,14.23
2023-03-24T01:28:34.151Z,14.21
2023-03-24T01:34:54.199Z,14.18
2023-03-24T01:41:17.187Z,14.17
2023-03-24T01:47:37.149Z,14.14
2023-03-24T01:54:00.247Z,14.13
2023-03-24T02:00:20.163Z,14.1
2023-03-24T02:06:43.192Z,14.05
2023-03-24T02:13:03.188Z,14.04
2023-03-24T02:19:26.192Z,14.08
2023-03-24T02:25:46.152Z,14.09
2023-03-24T02:32:09.242Z,14.13
2023-03-24T02:38:29.161Z,14.22
2023-03-24T02:44:52.167Z,14.27
2023-03-24T02:51:12.218Z,14.33
2023-03-24T02:57:35.166Z,14.38
2023-03-24T03:03:55.203Z,14.44
2023-03-24T03:10:18.222Z,14.44
2023-03-24T03:16:38.239Z,14.41
2023-03-24T03:23:01.144Z,14.37
2023-03-24T03:29:21.228Z,14.32
2023-03-24T03:35:44.529Z,14.28
2023-03-24T03:42:04.172Z,14.24
2023-03-24T03:48:27.175Z,14.21
2023-03-24T03:54:47.165Z,14.2
2023-03-24T04:01:10.174Z,14.2
2023-03-24T04:07:30.167Z,14.21
2023-03-24T04:13:53.220Z,14.24
2023-03-24T04:20:13.146Z,14.28
2023-03-24T04:26:36.215Z,14.34
2023-03-24T04:43:01.152Z,14.46
2023-03-24T04:49:21.132Z,14.49
2023-03-24T04:55:44.276Z,14.52
2023-03-24T05:02:04.165Z,14.55
2023-03-24T05:08:27.187Z,14.56
2023-03-24T05:14:47.142Z,14.61
2023-03-24T05:21:10.242Z,14.65
2023-03-24T05:27:30.137Z,14.67
2023-03-24T05:33:53.342Z,14.09
2023-03-24T05:40:13.261Z,13.24
2023-03-24T05:46:36.214Z,12.78
2023-03-24T05:52:56.215Z,12.6
2023-03-24T05:59:19.255Z,12.51
2023-03-24T06:05:39.166Z,12.48
2023-03-24T06:12:02.195Z,12.46
2023-03-24T06:18:22.217Z,12.43
2023-03-24T06:24:45.145Z,12.41
2023-03-24T06:31:05.236Z,12.42
2023-03-24T06:37:28.222Z,12.42
2023-03-24T06:43:48.164Z,12.46
2023-03-24T06:50:11.206Z,12.51
2023-03-24T06:56:31.274Z,12.51
2023-03-24T07:02:54.249Z,12.48
2023-03-24T07:09:14.171Z,12.41
2023-03-24T07:15:37.245Z,12.27
2023-03-24T07:21:57.162Z,12.15
2023-03-24T07:28:20.231Z,12.03
2023-03-24T07:34:40.233Z,11.99
2023-03-24T07:41:03.194Z,11.95
2023-03-24T07:47:23.207Z,11.92
2023-03-24T07:53:46.237Z,11.87
2023-03-24T08:00:06.168Z,11.9
2023-03-24T08:06:29.268Z,11.93
2023-03-24T08:12:49.213Z,11.92
2023-03-24T08:19:12.181Z,11.9
2023-03-24T08:25:32.180Z,11.95
2023-03-24T08:31:55.321Z,12.12
2023-03-24T08:38:16.873Z,12.33
2023-03-24T08:44:38.219Z,12.5
2023-03-24T08:50:58.165Z,12.61
2023-03-24T08:57:21.257Z,12.67
2023-03-24T09:03:41.272Z,12.57
2023-03-24T09:10:04.221Z,12.62
2023-03-24T09:16:24.182Z,12.9
2023-03-24T09:22:47.227Z,13.16
2023-03-24T09:29:07.195Z,13.48
2023-03-24T09:35:30.284Z,13.71
2023-03-24T09:41:50.184Z,13.85
2023-03-24T09:48:13.211Z,13.87
2023-03-24T10:04:39.098Z,14.14
2023-03-24T10:10:59.129Z,14.53
2023-03-24T10:17:22.188Z,14.82
2023-03-24T10:23:42.171Z,15.18
2023-03-24T10:30:05.199Z,15.36
2023-03-24T10:36:25.209Z,15.42
2023-03-24T10:42:48.315Z,15.38
2023-03-24T10:49:08.218Z,15.25
2023-03-24T10:55:31.236Z,15.06
2023-03-24T11:01:51.238Z,15.03
2023-03-24T11:08:14.199Z,15.32
2023-03-24T11:14:34.167Z,15.35
2023-03-24T11:20:57.339Z,15.55
2023-03-24T11:27:17.198Z,15.53
2023-03-24T11:33:40.185Z,15.65
2023-03-24T11:40:00.215Z,15.67
2023-03-24T11:46:23.232Z,15.85
2023-03-24T11:52:43.149Z,15.89
2023-03-24T11:59:07.249Z,16.12
2023-03-24T12:05:28.220Z,16.26
2023-03-24T12:11:51.180Z,16.48
2023-03-24T12:18:11.234Z,16.73
2023-03-24T12:24:34.219Z,16.95
2023-03-24T12:30:54.149Z,16.87
2023-03-24T12:37:17.229Z,16.72
2023-03-24T12:43:37.161Z,17.18
2023-03-24T12:50:00.195Z,17.14
2023-03-24T12:56:20.200Z,17.49
2023-03-24T13:02:43.230Z,17.34
2023-03-24T13:09:03.188Z,17.13
2023-03-24T13:15:26.450Z,17.04
2023-03-24T13:21:46.164Z,16.9
2023-03-24T13:28:09.222Z,16.83
2023-03-24T13:34:29.216Z,16.94
2023-03-24T13:40:52.153Z,16.81
2023-03-24T13:47:12.204Z,16.55
2023-03-24T13:53:35.190Z,16.49
2023-03-24T13:59:55.188Z,16.7
2023-03-24T14:06:18.189Z,16.44
2023-03-24T14:12:38.259Z,16.13
2023-03-24T14:19:01.197Z,16.29
2023-03-24T14:25:21.190Z,16.35
2023-03-24T14:31:44.227Z,16.3
2023-03-24T14:38:04.192Z,16.26
2023-03-24T14:44:27.148Z,16.15
2023-03-24T14:50:47.380Z,16.01
2023-03-24T14:57:10.178Z,15.89
2023-03-24T15:03:30.187Z,15.86
2023-03-24T15:09:53.251Z,15.76
2023-03-24T15:16:13.178Z,15.36
2023-03-24T15:32:41.273Z,15.34
2023-03-24T15:39:01.180Z,15.71
2023-03-24T15:45:24.203Z,15.88
2023-03-24T15:51:44.221Z,16.06
2023-03-24T15:58:07.185Z,16.04
2023-03-24T16:04:27.173Z,15.91
2023-03-24T16:10:50.309Z,15.96
2023-03-24T16:17:10.177Z,16.25
2023-03-24T16:23:33.174Z,16.25
2023-03-24T16:29:53.176Z,15.88
2023-03-24T16:36:16.281Z,15.55
2023-03-24T16:42:36.270Z,15.35
2023-03-24T16:49:00.298Z,14.42
2023-03-24T16:55:20.196Z,13.36
2023-03-24T17:01:43.221Z,12.7
2023-03-24T17:08:03.230Z,12.44
2023-03-24T17:14:26.172Z,12.21
2023-03-24T17:20:46.238Z,11.69
2023-03-24T17:27:09.201Z,11.44
2023-03-24T17:33:29.169Z,11.34
2023-03-24T17:39:52.182Z,11.27
2023-03-24T17:46:12.202Z,11.3
2023-03-24T17:52:35.212Z,11.18
2023-03-24T17:58:55.183Z,11.08
2023-03-24T18:05:18.234Z,11.01
2023-03-24T18:11:38.159Z,10.88
2023-03-24T18:18:01.275Z,10.78
2023-03-24T18:24:21.300Z,10.64
2023-03-24T18:30:44.188Z,10.55
2023-03-24T18:37:04.192Z,10.53
2023-03-24T18:43:27.202Z,10.52
2023-03-24T18:49:47.166Z,10.49
2023-03-24T18:56:10.198Z,10.43
2023-03-24T19:02:30.222Z,10.43
2023-03-24T19:08:53.209Z,10.45
2023-03-24T19:15:13.214Z,10.46
2023-03-24T19:21:36.186Z,10.46
2023-03-24T19:27:56.219Z,10.5
2023-03-24T19:34:19.173Z,10.64
2023-03-24T19:40:39.227Z,10.78
2023-03-24T19:47:02.157Z,10.9
2023-03-24T19:53:22.240Z,11.02
2023-03-24T19:59:45.257Z,11.12
2023-03-24T20:06:05.155Z,11.16
2023-03-24T20:12:28.203Z,11.24
2023-03-24T20:18:48.178Z,11.32
2023-03-24T20:25:11.169Z,11.37
2023-03-24T20:31:31.205Z,11.39
2023-03-24T20:49:01.104Z,11.39
2023-03-24T20:55:21.159Z,11.37
2023-03-24T21:01:44.144Z,11.35
2023-03-24T21:08:04.199Z,11.3
2023-03-24T21:14:27.161Z,11.26
2023-03-24T21:20:47.196Z,11.23
2023-03-24T21:27:10.204Z,11.19
2023-03-24T21:33:30.159Z,11.16
2023-03-24T21:39:53.243Z,11.11
2023-03-24T21:46:13.311Z,11.05
2023-03-24T21:52:36.230Z,10.97
2023-03-24T21:58:56.169Z,10.89
2023-03-24T22:05:19.192Z,10.81
2023-03-24T22:11:39.179Z,10.74
2023-03-24T22:18:02.209Z,10.67
2023-03-24T22:24:22.188Z,10.61
2023-03-24T22:30:45.355Z,10.58
2023-03-24T22:37:05.140Z,10.56
2023-03-24T22:43:28.211Z,10.54
2023-03-24T22:49:48.173Z,10.53
2023-03-24T22:56:11.154Z,10.52
2023-03-24T23:20:26.182Z,10.43
2023-03-24T23:26:46.169Z,10.42
2023-03-24T23:33:09.231Z,10.39
2023-03-24T23:39:29.192Z,10.36
2023-03-24T23:45:52.313Z,10.34
2023-03-24T23:52:12.208Z,10.33
2023-03-24T23:58:35.256Z,10.31
